Time;durP1;ratioP1;P1;durP2;ratioP2;P2;SDS_P1;SDS_P2;PMS_P1;PMS_P2;Temp;Humidity;BMP_temperature;BMP_pressure;BME280_temperature;BME280_humidity;BME280_pressure;Samples;Min_cycle;Max_cycle;Signal;HPM_P1;HPM_P2
2023/06/17 00:08:16;;;;;;;;;;;;;;;18.37;76.35;101603.22;20688183;28;19929;-59
2023/06/17 00:18:39;;;;;;;;;;;;;;;18.20;76.76;101600.59;20705894;28;19966;-58
2023/06/17 00:29:00;;;;;;;;;;;;;;;17.98;76.70;101584.22;20714337;28;19960;-57
2023/06/17 00:39:22;;;;;;;;;;;;;;;18.02;76.22;101581.38;20680723;28;19976;-59
2023/06/17 00:49:45;;;;;;;;;;;;;;;17.97;77.42;101590.38;20696500;28;19945;-59
2023/06/17 01:00:10;;;;;;;;;;;;;;;17.86;79.76;101584.81;20692137;28;19960;-58
2023/06/17 01:10:54;;;;;;;;;;;;;;;17.69;78.29;101593.47;20722255;28;20385;-59
2023/06/17 01:21:22;;;;;;;;;;;;;;;17.77;80.91;101582.63;20706342;28;19957;-58
2023/06/17 01:31:48;;;;;;;;;;;;;;;17.79;78.14;101583.41;20717717;28;19980;-58
2023/06/17 01:42:18;;;;;;;;;;;;;;;17.79;77.27;101572.94;20713848;28;19926;-58
2023/06/17 01:52:40;;;;;;;;;;;;;;;17.79;81.97;101581.66;20702753;28;19951;-59
2023/06/17 02:03:01;;;;;;;;;;;;;;;17.65;86.15;101573.56;20698557;28;19925;-59
2023/06/17 02:13:23;;;;;;;;;;;;;;;17.60;84.33;101582.59;20704505;28;20345;-59
2023/06/17 02:23:49;;;;;;;;;;;;;;;17.58;83.66;101577.41;20712383;28;19933;-59
2023/06/17 02:34:10;;;;;;;;;;;;;;;17.62;80.29;101585.97;20682189;28;20364;-59
2023/06/17 02:44:32;;;;;;;;;;;;;;;17.67;79.09;101569.13;20700922;28;19932;-59
2023/06/17 02:54:53;;;;;;;;;;;;;;;17.67;77.51;101578.75;20710735;28;19953;-59
2023/06/17 03:05:16;;;;;;;;;;;;;;;17.61;81.89;101579.91;20711986;28;19936;-58
2023/06/17 03:15:38;;;;;;;;;;;;;;;17.49;79.99;101569.16;20727356;28;19951;-58
2023/06/17 03:26:00;;;;;;;;;;;;;;;17.46;82.77;101579.72;20716708;28;19930;-59
2023/06/17 03:36:25;;;;;;;;;;;;;;;17.43;79.94;101572.88;20679892;28;19926;-58
2023/06/17 03:46:46;;;;;;;;;;;;;;;17.39;80.41;101581.78;20703060;28;19965;-57
2023/06/17 03:57:08;;;;;;;;;;;;;;;17.33;82.71;101578.59;20680666;28;19925;-57
2023/06/17 04:07:29;;;;;;;;;;;;;;;17.23;82.65;101575.56;20728235;28;19925;-58
2023/06/17 04:17:50;;;;;;;;;;;;;;;17.39;80.58;101583.53;20678805;28;19930;-57
2023/06/17 04:28:12;;;;;;;;;;;;;;;17.36;79.08;101575.84;20709410;28;19972;-58
2023/06/17 04:38:36;;;;;;;;;;;;;;;17.31;78.91;101575.19;20681608;28;20016;-59
2023/06/17 04:48:58;;;;;;;;;;;;;;;17.35;78.59;101576.75;20708767;28;19932;-58
2023/06/17 04:59:20;;;;;;;;;;;;;;;17.33;79.03;101574.22;20728402;28;19960;-58
2023/06/17 05:09:41;;;;;;;;;;;;;;;17.33;79.75;101587.28;20733129;28;20312;-58
2023/06/17 05:20:03;;;;;;;;;;;;;;;17.21;79.98;101587.00;20714093;28;19926;-58
2023/06/17 05:30:24;;;;;;;;;;;;;;;17.30;80.81;101581.34;20703069;28;19926;-57
2023/06/17 05:40:46;;;;;;;;;;;;;;;17.31;80.88;101596.97;20716986;28;19929;-59
2023/06/17 05:51:08;;;;;;;;;;;;;;;17.36;79.26;101600.22;20701590;28;19932;-58
2023/06/17 06:01:29;;;;;;;;;;;;;;;17.36;80.45;101600.22;20726607;28;19929;-57
2023/06/17 06:11:51;;;;;;;;;;;;;;;17.41;77.38;101608.72;20720809;28;19988;-58
2023/06/17 06:22:12;;;;;;;;;;;;;;;17.50;76.93;101604.88;20709890;28;19930;-58
2023/06/17 06:32:34;;;;;;;;;;;;;;;17.68;76.92;101615.34;20723223;28;19932;-59
2023/06/17 06:42:55;;;;;;;;;;;;;;;17.80;77.99;101627.03;20696154;28;19929;-58
2023/06/17 06:53:19;;;;;;;;;;;;;;;17.84;76.44;101634.63;20694076;28;19931;-58
2023/06/17 07:03:41;;;;;;;;;;;;;;;17.93;78.78;101633.34;20693330;28;19930;-58
2023/06/17 07:14:02;;;;;;;;;;;;;;;18.09;75.81;101629.09;20712872;28;20010;-58
2023/06/17 07:24:23;;;;;;;;;;;;;;;18.09;75.53;101629.09;20707841;28;20441;-58
2023/06/17 07:34:45;;;;;;;;;;;;;;;18.24;73.96;101641.44;20699181;28;19925;-57
2023/06/17 07:45:07;;;;;;;;;;;;;;;18.34;75.64;101642.69;20701020;28;20399;-59
2023/06/17 07:55:28;;;;;;;;;;;;;;;18.34;75.13;101645.31;20716316;28;19933;-58
2023/06/17 08:05:50;;;;;;;;;;;;;;;18.52;77.69;101633.09;20706400;28;19926;-58
2023/06/17 08:16:12;;;;;;;;;;;;;;;18.64;74.16;101651.69;20718692;28;19925;-58
2023/06/17 08:26:33;;;;;;;;;;;;;;;18.82;71.97;101639.44;20699987;28;19940;-58
2023/06/17 08:36:55;;;;;;;;;;;;;;;19.03;71.55;101636.53;20688479;28;20302;-60
2023/06/17 08:47:16;;;;;;;;;;;;;;;19.33;71.10;101638.50;20677655;28;20043;-58
2023/06/17 08:57:39;;;;;;;;;;;;;;;19.47;70.81;101626.34;20709903;28;19929;-60
2023/06/17 09:08:01;;;;;;;;;;;;;;;19.71;72.12;101618.91;20692164;28;19925;-59
2023/06/17 09:18:22;;;;;;;;;;;;;;;19.97;71.16;101620.94;20707639;28;19948;-59
2023/06/17 09:28:44;;;;;;;;;;;;;;;20.40;69.74;101624.63;20733148;28;20368;-59
2023/06/17 09:39:06;;;;;;;;;;;;;;;20.69;67.28;101621.16;20709720;28;20024;-58
2023/06/17 09:49:30;;;;;;;;;;;;;;;20.97;68.11;101614.13;20711851;28;19935;-60
2023/06/17 09:59:54;;;;;;;;;;;;;;;21.05;66.32;101602.31;20677945;28;19945;-59
2023/06/17 10:10:17;;;;;;;;;;;;;;;21.26;66.93;101601.84;20712981;28;19929;-61
2023/06/17 10:20:40;;;;;;;;;;;;;;;21.75;65.14;101583.81;20692302;28;20019;-61
2023/06/17 10:31:18;;;;;;;;;;;;;;;22.13;65.02;101584.81;20706328;28;20020;-63
2023/06/17 10:41:39;;;;;;;;;;;;;;;22.52;63.85;101576.91;20712418;28;19968;-65
2023/06/17 10:52:01;;;;;;;;;;;;;;;22.98;62.68;101564.88;20718726;28;19926;-64
2023/06/17 11:02:23;;;;;;;;;;;;;;;23.32;61.72;101551.97;20698640;28;19940;-60
2023/06/17 11:12:46;;;;;;;;;;;;;;;23.71;61.79;101554.38;20697781;28;20393;-61
2023/06/17 11:23:11;;;;;;;;;;;;;;;24.20;59.56;101552.47;20703262;28;20334;-59
2023/06/17 11:33:32;;;;;;;;;;;;;;;24.53;58.94;101543.75;20702647;28;20308;-59
2023/06/17 11:43:57;;;;;;;;;;;;;;;24.86;57.73;101536.75;20679019;28;19925;-60
2023/06/17 11:54:21;;;;;;;;;;;;;;;24.97;58.13;101529.75;20712300;28;20608;-60
2023/06/17 12:04:44;;;;;;;;;;;;;;;25.01;59.32;101516.16;20694679;28;19941;-60
2023/06/17 12:15:07;;;;;;;;;;;;;;;24.78;60.49;101507.34;20687900;28;19929;-60
2023/06/17 12:25:37;;;;;;;;;;;;;;;24.71;59.33;101511.44;20691796;28;19984;-61
2023/06/17 12:35:59;;;;;;;;;;;;;;;24.58;60.56;101501.88;20704923;28;20020;-59
2023/06/17 12:46:20;;;;;;;;;;;;;;;24.59;60.18;101475.31;20697348;28;19937;-59
2023/06/17 12:56:42;;;;;;;;;;;;;;;24.74;59.19;101468.84;20715196;28;20349;-59
2023/06/17 13:07:04;;;;;;;;;;;;;;;25.07;57.98;101470.59;20714728;28;19929;-59
2023/06/17 13:17:25;;;;;;;;;;;;;;;25.25;57.48;101463.84;20709546;28;20587;-59
2023/06/17 13:27:47;;;;;;;;;;;;;;;25.41;57.59;101460.81;20715516;28;20348;-59
2023/06/17 13:38:08;;;;;;;;;;;;;;;25.44;58.23;101461.41;20717107;28;21266;-59
2023/06/17 13:48:31;;;;;;;;;;;;;;;25.80;56.52;101444.25;20712245;28;20369;-59
2023/06/17 13:58:53;;;;;;;;;;;;;;;25.51;57.98;101456.44;20716410;28;19926;-58
2023/06/17 14:09:14;;;;;;;;;;;;;;;25.54;57.86;101442.94;20734229;28;19929;-58
2023/06/17 14:19:36;;;;;;;;;;;;;;;25.59;55.43;101430.97;20699561;28;19932;-59
2023/06/17 14:29:57;;;;;;;;;;;;;;;25.68;56.85;101418.75;20710825;28;20312;-59
2023/06/17 14:40:19;;;;;;;;;;;;;;;25.54;57.08;101417.28;20724295;28;20008;-60
2023/06/17 14:50:41;;;;;;;;;;;;;;;25.80;57.18;101415.09;20723337;28;20013;-59
2023/06/17 15:01:03;;;;;;;;;;;;;;;25.76;57.89;101408.34;20716442;28;20474;-59
2023/06/17 15:11:25;;;;;;;;;;;;;;;25.70;58.68;101404.41;20706927;28;20277;-59
2023/06/17 15:21:47;;;;;;;;;;;;;;;25.91;59.42;101404.41;20717931;28;19929;-59
2023/06/17 15:32:09;;;;;;;;;;;;;;;26.03;59.02;101413.13;20708964;28;19936;-60
2023/06/17 15:42:30;;;;;;;;;;;;;;;26.01;59.39;101405.28;20704761;28;20365;-60
2023/06/17 15:52:52;;;;;;;;;;;;;;;25.95;60.24;101405.81;20704663;28;19961;-60
2023/06/17 16:03:25;;;;;;;;;;;;;;;25.95;60.35;101403.16;20690409;28;19931;-59
2023/06/17 16:13:47;;;;;;;;;;;;;;;25.99;61.25;101423.16;20693658;28;19933;-60
2023/06/17 16:24:10;;;;;;;;;;;;;;;26.21;60.98;101416.88;20691845;28;19933;-59
2023/06/17 16:34:32;;;;;;;;;;;;;;;26.25;61.41;101429.78;20687665;28;20309;-59
2023/06/17 16:44:53;;;;;;;;;;;;;;;26.29;61.49;101422.38;20706856;28;19940;-60
2023/06/17 16:55:15;;;;;;;20.55;10.35;;;;;;;26.18;61.12;101431.28;20711077;28;19929;-59
2023/06/17 17:05:36;;;;;;;16.38;9.48;;;;;;;26.03;61.82;101434.34;20695782;28;20053;-59
2023/06/17 17:15:58;;;;;;;18.85;9.50;;;;;;;25.80;62.40;101433.66;20719809;28;20043;-60
2023/06/17 17:26:20;;;;;;;19.77;10.70;;;;;;;25.52;62.84;101439.56;20712310;28;20137;-60
2023/06/17 17:36:41;;;;;;;18.25;9.95;;;;;;;25.33;63.19;101449.94;20703295;28;20046;-61
2023/06/17 17:47:03;;;;;;;14.15;9.45;;;;;;;25.10;63.07;101449.19;20706398;28;20049;-60
2023/06/17 17:57:26;;;;;;;15.40;9.82;;;;;;;24.85;63.98;101460.06;20699879;28;20046;-60
2023/06/17 18:07:47;;;;;;;15.38;10.32;;;;;;;24.62;65.57;101459.19;20709840;28;20053;-61
2023/06/17 18:18:10;;;;;;;18.77;11.25;;;;;;;24.32;65.66;101480.06;20712584;28;20527;-59
2023/06/17 18:28:32;;;;;;;17.63;11.13;;;;;;;23.89;66.04;101490.41;20700904;28;20140;-59
2023/06/17 18:38:53;;;;;;;;;;;;;;;23.48;67.60;101505.84;20708753;28;20044;-62
2023/06/17 18:49:19;;;;;;;;;;;;;;;23.03;68.03;101514.41;20715885;28;19921;-62
2023/06/17 18:59:41;;;;;;;;;;;;;;;22.62;69.88;101519.91;20704138;28;19925;-63
2023/06/17 19:10:03;;;;;;;;;;;;;;;22.41;70.09;101529.28;20711855;28;19921;-61
2023/06/17 19:20:24;;;;;;;;;;;;;;;22.06;69.82;101530.81;20705539;28;20241;-61
2023/06/17 19:30:46;;;;;;;;;;;;;;;21.71;70.21;101541.00;20715811;28;20297;-61
2023/06/17 19:41:08;;;;;;;;;;;;;;;21.60;70.89;101548.75;20729613;28;20249;-60
2023/06/17 19:51:29;;;;;;;;;;;;;;;21.43;71.46;101534.94;20712186;28;20622;-60
2023/06/17 20:01:51;;;;;;;;;;;;;;;21.24;71.79;101542.31;20701795;28;20280;-62
2023/06/17 20:12:13;;;;;;;;;;;;;;;21.07;71.96;101543.38;20714377;28;19925;-60
2023/06/17 20:22:35;;;;;;;;;;;;;;;20.96;72.71;101546.66;20697924;28;19929;-60
2023/06/17 20:32:56;;;;;;;;;;;;;;;20.62;75.46;101564.56;20713825;28;20040;-60
2023/06/17 20:43:18;;;;;;;;;;;;;;;20.43;75.78;101559.56;20709865;28;19928;-60
2023/06/17 20:53:39;;;;;;;;;;;;;;;20.16;76.24;101570.81;20689096;28;19948;-59
2023/06/17 21:04:01;;;;;;;;;;;;;;;19.94;76.76;101568.56;20689364;28;19922;-60
2023/06/17 21:14:23;;;;;;;;;;;;;;;19.93;77.72;101566.84;20692003;28;19925;-60
2023/06/17 21:24:45;;;;;;;;;;;;;;;19.73;78.35;101564.50;20698260;28;19932;-60
2023/06/17 21:35:06;;;;;;;;;;;;;;;19.63;79.62;101563.34;20714629;28;19928;-59
2023/06/17 21:45:28;;;;;;;;;;;;;;;19.63;79.35;101558.91;20688189;28;19925;-60
2023/06/17 21:55:49;;;;;;;;;;;;;;;19.49;79.77;101564.09;20703886;28;19921;-59
2023/06/17 22:06:11;;;;;;;;;;;;;;;19.27;78.69;101562.69;20715999;28;19926;-61
2023/06/17 22:16:32;;;;;;;;;;;;;;;19.20;80.13;101559.56;20694087;28;19936;-60
2023/06/17 22:26:54;;;;;;;;;;;;;;;19.10;81.65;101552.25;20705359;28;19929;-59
2023/06/17 22:37:15;;;;;;;;;;;;;;;19.05;82.95;101550.72;20730017;28;20012;-60
2023/06/17 22:47:37;;;;;;;;;;;;;;;19.02;82.04;101539.56;20700535;28;20297;-58
2023/06/17 22:57:58;;;;;;;;;;;;;;;18.96;82.89;101539.88;20701748;28;19945;-61
2023/06/17 23:08:20;;;;;;;;;;;;;;;18.90;82.35;101541.03;20710010;28;19921;-60
2023/06/17 23:18:41;;;;;;;;;;;;;;;18.74;83.62;101553.28;20720171;28;19949;-59
2023/06/17 23:29:03;;;;;;;;;;;;;;;18.69;83.46;101546.56;20720720;28;20367;-59
2023/06/17 23:39:24;;;;;;;;;;;;;;;18.63;83.80;101545.13;20706493;28;19926;-58
2023/06/17 23:49:46;;;;;;;;;;;;;;;18.56;84.08;101541.13;20719323;28;19933;-58
